Graceful Lady — 00 — position and weather

sailwx.info

Track history (hours):
 
Tides and Currents Weather Stations Pressure Air Temp Water Temp Dewpoint Dewpoint Depression Visibility Wind Speed Wind Dir Waves Ship Positions

Graceful Lady

Last reported at 2016-Oct-01 00:33 UTC. Time now 2016-Oct-01 01:33 UTC.
Position N 23°01' E 113°32'.

Length 6 m.

Type: Pollution control. MMSI: 316014038.

Date/timePositionNaut miles runAvg speedWind from/ knotsBaromVisibWave heightAir tempDewpointWater temp
2016-Oct-01 00:33N 23°01' E 113°32'6141105654.3
2016-Oct-01 00:33N 29°54' E 121°59'462332929.1
2016-Oct-01 00:33N 37°36' E 121°25'467420466.0
2016-Oct-01 00:33N 29°49' E 122°01'184212.1
2016-Oct-01 00:33N 29°55' E 122°20'33413969.8
2016-Oct-01 00:32N 25°07' E 119°09'401203.3
2016-Sep-30 22:33N 31°31' E 121°19'10978683.1
2016-Sep-30 22:33N 29°53' E 122°15'1315421.4
2016-Sep-30 22:33N 29°49' E 122°01'467186873.8
2016-Sep-30 22:33N 37°36' E 121°25'34314873.9
2016-Sep-30 22:32N 31°57' E 120°18'6461875.5
2016-Sep-30 22:11N 23°01' E 113°32'61476251.5
2016-Sep-30 22:11N 29°54' E 121°59'9760.1
2016-Sep-30 20:33N 31°28' E 121°27'10493154.5
2016-Sep-30 20:33N 29°51' E 122°10'46559743.1
2016-Sep-30 20:33N 37°34' E 121°25'46622347.4
2016-Sep-30 20:32N 29°49' E 122°01'61315546.0
2016-Sep-30 20:29N 23°00' E 113°31'61524076.5
2016-Sep-30 20:28N 29°54' E 121°59'10 3.5
2016-Sep-30 17:33N 29°51' E 122°10'9887896.8
2016-Sep-30 17:33N 31°24' E 121°35'9749801.3
2016-Sep-30 17:33N 29°49' E 122°01'466419024.9
2016-Sep-30 17:33N 37°34' E 121°25'964108448.1
2016-Sep-30 17:33N 23°01' E 113°32'61473715.1
2016-Sep-30 17:32N 29°54' E 121°59'9 9.5
2016-Sep-30 16:33N 29°52' E 122°10'92564.2
2016-Sep-30 16:33N 29°49' E 122°01'466119723.8
2016-Sep-30 16:33N 37°34' E 121°25'825601.6
2016-Sep-30 16:32N 36°42' E 122°45'3273214.3
2016-Sep-30 16:26N 31°19' E 121°42'6629773.6
2016-Sep-30 16:22N 23°01' E 113°32'614737102.8
2016-Sep-30 16:22N 29°54' E 121°59'532294.6
2016-Sep-30 14:34N 38°18' E 118°33'21436659.2
2016-Sep-30 14:33N 37°02' E 122°46'7211240.6
2016-Sep-30 14:33N 37°34' E 121°25'466152367.9
2016-Sep-30 14:33N 29°49' E 122°01'470473.3
2016-Sep-30 13:33N 37°38' E 121°24'470281930.5
2016-Sep-30 13:33N 29°49' E 122°01'4481633.0
2016-Sep-30 13:16N 37°15' E 122°47'4433529.4
2016-Sep-30 13:09N 29°54' E 121°59'2421957.8
2016-Sep-30 13:09N 30°18' E 121°56'23761.6
2016-Sep-30 13:07N 29°56' E 122°01'7 2.5
2016-Sep-30 10:31N 29°49' E 122°01'29105225.5
2016-Sep-30 10:31N 30°18' E 121°56'24195.6
2016-Sep-30 10:23N 29°54' E 121°59'5 2.6
2016-Sep-30 08:33N 29°49' E 122°01'291570.5
2016-Sep-30 08:32N 30°18' E 121°56'24229.9
2016-Sep-30 08:25N 29°54' E 121°59'6447.5
2016-Sep-30 08:25N 29°55' E 122°07'11353.8
2016-Sep-30 08:23N 29°56' E 122°19'5 2.7
2016-Sep-30 06:33N 29°51' E 122°18'448402983.0
2016-Sep-30 06:33N 23°40' E 117°37'43814594.4
2016-Sep-30 06:31N 29°49' E 122°01'5257.3
2016-Sep-30 06:30N 29°54' E 121°59'2486.1
2016-Sep-30 06:13N 30°18' E 121°56'9033.9
2016-Sep-30 03:33N 31°40' E 121°12'220.8
2016-Sep-30 03:28N 31°39' E 121°14'8 9.3
2016-Sep-30 02:33N 31°33' E 121°21'3159.0
2016-Sep-30 02:32N 31°36' E 121°18'4 1.3
2016-Sep-29 23:34N 31°32' E 121°20'38818376.6
2016-Sep-29 23:32N 37°59' E 120°55'493104364.7
2016-Sep-29 23:32N 29°49' E 122°01'522.4
2016-Sep-29 23:19N 29°54' E 121°59'19639.2
2016-Sep-29 23:17N 30°06' E 122°16'61103527.0
2016-Sep-29 21:33N 33°37' W 117°55'614411058646.9
2016-Sep-29 21:33N 31°57' E 120°18'586153.5
2016-Sep-29 21:33N 31°32' E 121°20'1081402.3
2016-Sep-29 21:28N 29°49' E 122°01'15310767.7
2016-Sep-29 21:27N 31°58' E 120°26'1561464.9
2016-Sep-29 21:21N 29°56' E 122°19'4763348.7
2016-Sep-29 21:12N 37°49' E 121°11'378584.6
2016-Sep-29 20:33N 31°32' E 121°20'11199555.4
2016-Sep-29 20:33N 29°52' E 122°16'1412533.1
2016-Sep-29 20:33N 29°49' E 122°01'478344322.5
2016-Sep-29 20:33N 37°46' E 121°15'38977870.6
2016-Sep-29 20:33N 31°17' E 121°44'862267.8
2016-Sep-29 20:31N 31°56' E 120°14'1521249.2
2016-Sep-29 20:23N 29°54' E 121°59'468563.8
2016-Sep-29 19:34N 37°41' E 121°21'37070013.9
2016-Sep-29 19:33N 31°32' E 121°20'103124131.5
2016-Sep-29 19:33N 29°54' E 121°59'9120513.1
2016-Sep-29 19:33N 31°23' E 121°35'9932317.8
2016-Sep-29 19:33N 29°51' E 122°18'1665023.7
2016-Sep-29 19:31N 31°56' E 120°10'158113895.5
2016-Sep-29 19:31N 29°49' E 122°01'6133883116.3
2016-Sep-29 19:30N 33°37' W 117°55'6104142689.7
2016-Sep-29 19:28N 31°17' E 121°34'377129.7
2016-Sep-29 16:33N 37°34' E 121°24'371267363.1
2016-Sep-29 16:33N 31°23' E 121°35'9669200.1
2016-Sep-29 16:33N 29°49' E 122°01'15341.7
2016-Sep-29 16:30N 29°51' E 122°18'16194.7
2016-Sep-29 16:25N 29°54' E 121°59'1481391.9
2016-Sep-29 16:19N 31°59' E 120°27'5268.5
2016-Sep-29 15:33N 31°32' E 121°20'3621304216.1
2016-Sep-29 15:33N 37°34' E 121°24'463417118.3
2016-Sep-29 15:33N 29°53' E 122°16'151675.0
2016-Sep-29 15:32N 29°54' E 121°59'51461.8
2016-Sep-29 15:32N 29°49' E 122°01'466472.2
2016-Sep-29 14:33N 37°34' E 121°24'46134572.0
2016-Sep-29 14:32N 29°54' E 121°59'5216.3
2016-Sep-29 14:31N 29°49' E 122°01'1081092.9
2016-Sep-29 14:25N 31°32' E 121°20'1071743.5
2016-Sep-29 14:21N 29°59' E 122°21'155597.5
2016-Sep-29 14:06N 31°58' E 120°25'5399.0
2016-Sep-29 13:33N 31°32' E 121°20'36265221.6
2016-Sep-29 13:33N 37°34' E 121°24'466152421.7
2016-Sep-29 13:33N 29°49' E 122°01'588.4
2016-Sep-29 13:30N 29°54' E 121°59'851800.4
2016-Sep-29 13:27N 31°17' E 121°44'79695.7
2016-Sep-29 13:20N 30°04' E 122°19'97742.7
2016-Sep-29 13:12N 31°30' E 121°26'6 1.2
2016-Sep-29 08:33N 31°32' E 121°20'121145797.8
2016-Sep-29 08:33N 29°32' E 121°41'376410.5
2016-Sep-29 08:33N 29°52' E 122°17'1574137.4
2016-Sep-29 08:31N 31°58' E 120°27'15291340.2
2016-Sep-29 08:31N 29°49' E 122°01'47065031.5
2016-Sep-29 08:30N 37°38' E 121°25'46519460.7
2016-Sep-29 08:29N 29°54' E 121°59'1617.8
2016-Sep-29 07:33N 29°51' E 122°18'11226947.0
2016-Sep-29 07:33N 31°32' E 121°20'366659493.4
2016-Sep-29 07:33N 37°38' E 121°25'47018578.9
2016-Sep-29 07:32N 29°49' E 122°01'5450.3
2016-Sep-29 07:31N 29°54' E 121°59'6146581.0
2016-Sep-29 07:25N 23°01' E 113°32'65996.0
2016-Sep-29 00:33N 31°30' E 121°23'1097872.9
2016-Sep-29 00:32N 29°51' E 122°18'1513172.8
2016-Sep-29 00:32N 29°49' E 122°01'612115987.6
2016-Sep-29 00:32N 23°01' E 113°32'3236953.2
2016-Sep-29 00:29N 25°15' E 118°53'3997285.6
2016-Sep-29 00:26N 31°32' E 121°20'0 0.0
2016-Sep-28 21:33N 31°32' E 121°20'10920569.9
2016-Sep-28 21:33N 29°49' E 122°01'61244986.5
2016-Sep-28 21:32N 23°01' E 113°32'61211074.3
2016-Sep-28 21:29N 29°49' E 122°01'10956.4
2016-Sep-28 19:34N 31°32' E 121°20'659103164.3
2016-Sep-28 19:33N 23°01' E 113°32'61912965.4
2016-Sep-28 19:30N 29°54' E 122°07'750.5
2016-Sep-28 19:22N 29°49' E 122°01'545127637.9
2016-Sep-28 19:10N 49°18' W 122°54'54422088.4
2016-Sep-28 16:33N 29°54' E 122°07'712892.3
2016-Sep-28 16:33N 29°49' E 122°01'10965202.5
2016-Sep-28 16:33N 31°32' E 121°20'1094952.1
2016-Sep-28 16:32N 29°49' E 122°01'5449560478.2
2016-Sep-28 16:31N 49°18' W 122°56'543036199.2
2016-Sep-28 16:22N 29°56' E 122°19'1720.6
2016-Sep-28 15:33N 29°49' E 122°01'109195617.9
2016-Sep-28 15:33N 31°32' E 121°20'10647561.3
2016-Sep-28 15:33N 29°54' E 122°07'5441890302.1
2016-Sep-28 15:33N 49°18' W 122°55'5430574978.3
2016-Sep-28 15:32N 29°56' E 122°19'172661.6
2016-Sep-28 15:32N 29°49' E 122°01'612205.7
2016-Sep-28 12:33N 23°01' E 113°32'659474530.1
2016-Sep-28 12:33N 31°32' E 121°20'10978223.0
2016-Sep-28 12:33N 29°49' E 122°01'766.0
2016-Sep-28 12:27N 29°54' E 122°07'544224893.4
2016-Sep-28 12:14N 49°18' W 122°54'543260914.9
2016-Sep-28 12:08N 29°56' E 122°19'0 0.0
2016-Sep-28 08:33N 29°56' E 122°19'10855782.1
2016-Sep-28 08:33N 31°32' E 121°20'803520.8
2016-Sep-28 08:32N 30°18' E 121°56'30 5.9
2016-Sep-28 03:33N 29°56' E 122°19'10919544.3
2016-Sep-28 03:33N 31°32' E 121°20'109195607.7
2016-Sep-28 03:33N 29°49' E 122°01'5451225543.0
2016-Sep-28 03:32N 49°18' W 122°54'5436250905.8
2016-Sep-28 03:30N 29°55' E 122°13'12159.4
2016-Sep-28 03:26N 29°49' E 122°01'15614418.3
2016-Sep-28 03:25N 32°00' E 120°21'1536069.2
2016-Sep-28 03:23N 29°54' E 122°02'1057.7
2016-Sep-28 03:13N 29°45' E 121°57'112168.7
2016-Sep-28 02:33N 31°32' E 121°20'109391235.8
2016-Sep-28 02:33N 29°49' E 122°01'8844.1
2016-Sep-28 02:33N 29°55' E 122°07'8231.5
2016-Sep-28 02:31N 29°49' E 122°01'171071.6
2016-Sep-28 02:30N 29°56' E 122°19'6292681.1
2016-Sep-28 02:16N 23°01' E 113°32'6569119.4
2016-Sep-28 02:12N 32°04' E 120°27'154110758.2
2016-Sep-28 02:12N 29°54' E 122°02'1422.8
2016-Sep-28 01:33N 29°56' E 122°19'62990510.5
2016-Sep-28 01:33N 23°01' E 113°32'65929662.5
2016-Sep-28 01:32N 31°32' E 121°20'1094952.9
2016-Sep-28 01:30N 29°49' E 122°01'4303.6
2016-Sep-28 01:29N 29°54' E 122°02'544686753.0
2016-Sep-28 01:26N 49°18' W 122°54'539274662.4
2016-Sep-28 01:21N 31°23' E 121°34'93319.8
2016-Sep-28 01:04N 29°55' E 122°07'10670.1
2016-Sep-27 23:33N 31°32' E 121°20'56087589.7
2016-Sep-27 23:33N 23°11' E 116°39'50629401.2
2016-Sep-27 23:32N 29°56' E 122°19'175523.0
2016-Sep-27 23:32N 29°49' E 122°01'4111.2
2016-Sep-27 23:30N 29°54' E 122°02'61612891.7
2016-Sep-27 23:27N 23°02' E 113°31'6203420.8
2016-Sep-27 23:16N 29°55' E 122°07'7177.8
2016-Sep-27 23:13N 29°49' E 122°01'9525.8
2016-Sep-27 19:33N 31°22' E 121°37'93698.8
2016-Sep-27 19:33N 31°27' E 121°28'463185084.7
2016-Sep-27 19:33N 24°26' E 117°51'25420300.7
2016-Sep-27 19:32N 23°01' E 113°30'66028975.1
2016-Sep-27 19:31N 31°32' E 121°20'10926069.0
2016-Sep-27 19:31N 29°49' E 122°01'51946.8
2016-Sep-27 19:30N 29°54' E 121°59'5257.2
2016-Sep-27 19:29N 29°49' E 122°01'1776.3
2016-Sep-27 19:16N 29°56' E 122°19'1099.5
2016-Sep-27 19:10N 29°55' E 122°07'10 2.3
2016-Sep-27 14:33N 29°56' E 122°19'10955880.4
2016-Sep-27 14:33N 31°32' E 121°20'10926100.0
2016-Sep-27 14:33N 29°49' E 122°01'120216061.7
2016-Sep-27 14:33N 31°41' E 121°10'428385562.4
2016-Sep-27 14:33N 38°49' E 121°41'53639373.9
2016-Sep-27 14:32N 29°54' E 122°15'5436889571.0
2016-Sep-27 14:32N 49°18' W 122°54'61917429356.5
2016-Sep-27 14:32N 23°02' E 113°31'66014762.1
2016-Sep-27 14:29N 31°27' E 121°28'24196.9
2016-Sep-27 14:22N 31°44' E 121°07'1231562.5
2016-Sep-27 14:17N 29°49' E 122°01'93128.9
2016-Sep-27 13:33N 31°21' E 121°40'6622383583.0
2016-Sep-27 13:33N 23°02' E 113°31'660216130.7
2016-Sep-27 13:33N 31°39' E 121°13'11752669.2
2016-Sep-27 13:33N 29°49' E 122°01'171374.3
2016-Sep-27 13:32N 29°56' E 122°19'17565.3
2016-Sep-27 13:31N 29°49' E 122°01'545185689.6
2016-Sep-27 13:27N 49°18' W 122°54'53951867.0
2016-Sep-27 10:33N 31°32' E 121°20'5395571261.2
2016-Sep-27 10:33N 49°18' W 122°54'54511509453.6
2016-Sep-27 10:33N 29°49' E 122°01'612244899.5
2016-Sep-27 10:32N 23°02' E 113°31'660108069.3
2016-Sep-27 10:32N 31°39' E 121°13'21105.3
2016-Sep-27 10:20N 31°25' E 121°31'94410.3
2016-Sep-27 10:06N 29°54' E 121°59'10511.0
2016-Sep-27 00:33N 31°33' E 121°19'104124709.5
2016-Sep-27 00:33N 29°57' E 122°04'8935756.9
2016-Sep-27 00:33N 31°23' E 121°34'5392924408.9
2016-Sep-27 00:33N 49°18' W 122°54'59044250951.5
2016-Sep-27 00:33N 24°28' E 118°04'26536645.9
2016-Sep-27 00:32N 23°02' E 113°31'64210053.0
2016-Sep-27 00:29N 31°56' E 120°13'1529598.9
2016-Sep-27 00:28N 29°54' E 121°59'517.6
2016-Sep-27 00:11N 29°49' E 122°01'981371.7
2016-Sep-27 00:07N 31°24' E 121°34'53911516.7
2016-Sep-26 20:33N 49°18' W 122°54'53913881730.1
2016-Sep-26 20:33N 31°24' E 121°34'98117054.2
2016-Sep-26 20:33N 29°49' E 122°01'011.7
2016-Sep-26 20:32N 29°49' E 122°01'560.4
2016-Sep-26 20:28N 29°54' E 121°59'91672.0
2016-Sep-26 20:20N 31°23' E 121°37'3 3.7
2016-Sep-26 19:33N 31°24' E 121°34'988563.0
2016-Sep-26 19:33N 29°49' E 122°01'9628782.8
2016-Sep-26 19:33N 31°23' E 121°37'9613818.6
2016-Sep-26 19:32N 29°49' E 122°01'61225629.0
2016-Sep-26 19:31N 23°02' E 113°31'6625416.0
2016-Sep-26 19:23N 31°17' E 121°44'85450.1
2016-Sep-26 19:12N 29°54' E 121°60'615168.5
2016-Sep-26 15:33N 23°02' E 113°31'661476064.0
2016-Sep-26 15:33N 31°24' E 121°34'988783.5
2016-Sep-26 15:32N 29°49' E 122°01'5451408796.6
2016-Sep-26 15:32N 49°18' W 122°54'539097509.9
2016-Sep-26 15:28N 31°24' E 121°36'974516.2
2016-Sep-26 15:27N 29°49' E 122°01'868458.4
2016-Sep-26 13:33N 20°02' E 110°17'868780953.5
2016-Sep-26 13:33N 29°49' E 122°01'5451186884.5
2016-Sep-26 13:32N 49°18' W 122°54'5391588146.6
2016-Sep-26 13:31N 31°24' E 121°34'68356.2
2016-Sep-26 13:20N 32°02' E 120°27'15833486.8
2016-Sep-26 13:19N 29°56' E 122°19'953452.4
2016-Sep-26 13:18N 31°24' E 121°36'9755.6
2016-Sep-26 11:34N 29°49' E 122°01'073.5
2016-Sep-26 11:33N 29°49' E 122°01'612220459.4
2016-Sep-26 11:33N 23°02' E 113°31'64572515.8
2016-Sep-26 11:33N 31°57' E 120°16'5422629668.4
2016-Sep-26 11:32N 49°18' W 122°54'5445141034.5
2016-Sep-26 11:30N 29°53' E 122°03'943902.7
2016-Sep-26 11:28N 31°24' E 121°34'100846.8
2016-Sep-26 11:21N 29°51' E 122°18'982951.7
2016-Sep-26 11:19N 31°20' E 121°32'580.7
2016-Sep-26 11:16N 31°24' E 121°36'6 2.1
2016-Sep-26 08:33N 31°26' E 121°30'39667835.3
2016-Sep-26 08:33N 25°13' E 118°59'39567771.3
2016-Sep-26 08:33N 31°24' E 121°34'9612808.4
2016-Sep-26 08:32N 29°56' E 122°19'173384.0
2016-Sep-26 08:32N 29°54' E 121°59'54481225785.2
2016-Sep-26 08:32N 49°18' W 122°54'5451934392.2
2016-Sep-26 08:31N 29°49' E 122°01'972133.3
2016-Sep-26 08:29N 31°24' E 121°36'39166.7
2016-Sep-26 08:15N 31°47' E 120°60'321134.3
2016-Sep-26 08:13N 31°26' E 121°29'3953217.8
2016-Sep-26 08:06N 25°13' E 118°59'32057.8
2016-Sep-26 02:33N 29°49' E 122°01'54345.7
2016-Sep-26 02:33N 29°54' E 121°59'9325683.3
2016-Sep-26 02:33N 31°24' E 121°34'967065.1
2016-Sep-26 02:32N 29°56' E 122°19'628753400.3
2016-Sep-26 02:32N 23°03' E 113°31'619024039.4
2016-Sep-26 02:17N 49°18' W 122°54'539249517.1
2016-Sep-26 02:10N 31°22' E 121°36'6601068.9
2016-Sep-26 01:33N 23°03' E 113°31'612200154.6
2016-Sep-26 01:33N 29°49' E 122°01'9810035.8
2016-Sep-26 01:32N 31°24' E 121°34'53912772695.1
2016-Sep-26 01:32N 49°18' W 122°54'539285888.1
2016-Sep-26 01:29N 31°22' E 121°36'660718.8
2016-Sep-26 00:33N 23°03' E 113°31'6190557112.9
2016-Sep-26 00:33N 49°18' W 122°54'545120677.4
2016-Sep-26 00:17N 29°49' E 122°01'5186.4
2016-Sep-26 00:15N 29°54' E 121°59'614227.6
2016-Sep-25 21:33N 23°02' E 113°31'612275508.8
2016-Sep-25 21:33N 29°49' E 122°01'9819510.3
2016-Sep-25 21:33N 31°24' E 121°34'5391265874.5
2016-Sep-25 21:32N 49°18' W 122°54'539278586.1
2016-Sep-25 21:28N 31°22' E 121°36'2 0.6
2016-Sep-25 17:33N 31°24' E 121°34'539191985.0
2016-Sep-25 17:30N 49°18' W 122°54'5413927976.2
2016-Sep-25 17:30N 31°59' E 120°26'692745.4
2016-Sep-25 17:28N 31°22' E 121°36'974760.8
2016-Sep-25 17:27N 29°51' E 122°13'54406110.3
2016-Sep-25 16:33N 49°18' W 122°54'53911021507.5
2016-Sep-25 16:33N 31°24' E 121°34'1003747.1
2016-Sep-25 16:31N 29°48' E 122°07'989500.6
2016-Sep-25 16:31N 31°22' E 121°36'66121049.5
2016-Sep-25 16:29N 23°02' E 113°31'6203825.8
2016-Sep-25 16:19N 29°54' E 122°07'4722653.7
2016-Sep-25 16:09N 37°44' E 121°09'50938681.0
2016-Sep-25 15:33N 49°18' W 122°54'53911021506.0
2016-Sep-25 15:33N 31°24' E 121°34'661396758.4
2016-Sep-25 15:33N 23°02' E 113°31'96732229.8
2016-Sep-25 15:31N 37°44' E 121°09'48028341.9
2016-Sep-25 15:30N 29°46' E 122°01'100869.9
2016-Sep-25 15:23N 31°23' E 121°37'70941.7
2016-Sep-25 15:19N 31°59' E 120°26'7093.1
2016-Sep-25 14:33N 31°23' E 121°37'53909701623.0
2016-Sep-25 14:33N 49°18' W 122°54'53919704499.1
2016-Sep-25 14:33N 31°24' E 121°34'661340054.4
2016-Sep-25 14:33N 23°02' E 113°31'9673480821.6
2016-Sep-25 14:33N 37°44' E 121°09'5260.2
2016-Sep-25 14:32N 37°49' E 121°10'14 7.1
2016-Sep-25 12:33N 37°40' E 121°23'968232311.5
2016-Sep-25 12:33N 23°02' E 113°31'6191332660.3
2016-Sep-25 12:32N 49°18' W 122°54'5093195049.1
2016-Sep-25 12:30N 37°44' E 121°09'38065179.1
2016-Sep-25 12:30N 31°24' E 121°34'661699.7
2016-Sep-25 11:33N 23°02' E 113°31'967267748.2
2016-Sep-25 11:33N 37°44' E 121°09'156912.8
2016-Sep-25 11:33N 37°35' E 121°25'5090277611.9
2016-Sep-25 11:32N 49°18' W 122°54'5391208697.2
2016-Sep-25 11:30N 31°24' E 121°34'380398.7
2016-Sep-25 10:33N 37°44' E 121°09'967580114.6
2016-Sep-25 10:33N 23°02' E 113°31'661119020.7
2016-Sep-25 10:33N 31°24' E 121°34'5391431307.5
2016-Sep-25 10:32N 49°18' W 122°54'5091115994.6
2016-Sep-25 10:29N 37°34' E 121°24'4662615.7
2016-Sep-25 10:19N 29°49' E 122°01'98127.5
2016-Sep-25 09:33N 31°24' E 121°34'661125285.8
2016-Sep-25 09:32N 23°02' E 113°31'967870445.6
2016-Sep-25 09:32N 37°41' E 121°18'5089832793.4
2016-Sep-25 09:32N 49°18' W 122°54'5091115265.0
2016-Sep-25 09:29N 37°34' E 121°24'3391337.5
2016-Sep-25 09:14N 31°59' E 120°26'338201.6
2016-Sep-25 07:33N 37°33' E 121°25'465334860.5
2016-Sep-25 07:33N 29°49' E 122°01'9820670.4
2016-Sep-25 07:33N 31°24' E 121°34'37030973.7
2016-Sep-25 07:32N 37°34' E 121°24'5091229089.3
2016-Sep-25 07:31N 49°18' W 122°54'619124200.0
2016-Sep-25 07:16N 23°02' E 113°31'963356.2
2016-Sep-25 04:33N 37°33' E 121°25'36966488.7
2016-Sep-25 04:33N 31°24' E 121°34'9858535.8
2016-Sep-25 04:33N 29°49' E 122°01'46641913.7
2016-Sep-25 04:32N 37°34' E 121°24'50911078067.1
2016-Sep-25 04:32N 49°18' W 122°54'5448114026.5
2016-Sep-25 04:29N 29°54' E 121°59'91570.1
2016-Sep-25 04:20N 31°23' E 121°38'102570.5
2016-Sep-25 04:09N 29°42' E 121°56'477132.9
2016-Sep-25 00:33N 37°39' E 121°24'470846581.5
2016-Sep-25 00:33N 29°49' E 122°01'46555814.4
2016-Sep-25 00:33N 37°34' E 121°25'37153447.3
2016-Sep-25 00:32N 31°22' E 121°37'662238224.4
2016-Sep-25 00:32N 23°02' E 113°31'61432051.9
2016-Sep-25 00:31N 29°54' E 121°59'15522305.9
2016-Sep-25 00:31N 31°57' E 120°09'1676691.1
2016-Sep-25 00:29N 29°51' E 122°18'981425.7
2016-Sep-25 00:25N 31°23' E 121°37'5390776129.5
2016-Sep-25 00:25N 49°18' W 122°54'50912744.2
2016-Sep-24 22:33N 37°34' E 121°25'52675.0
2016-Sep-24 22:33N 37°39' E 121°24'968204912.7
2016-Sep-24 22:33N 23°02' E 113°31'25253424.8
2016-Sep-24 22:33N 24°26' E 117°50'39374405.0
2016-Sep-24 22:32N 29°49' E 122°01'54511783894.0
2016-Sep-24 22:32N 49°18' W 122°54'54311222074.3
2016-Sep-24 22:32N 29°56' E 122°19'948879.6
2016-Sep-24 22:31N 31°23' E 121°38'6097708093.4
2016-Sep-24 22:31N 33°37' W 117°55'6131140588.1
2016-Sep-24 22:28N 29°54' E 121°59'3563862.1
2016-Sep-24 22:23N 24°43' E 118°44'791965.0
2016-Sep-24 21:33N 37°43' E 121°18'9693490190.1
2016-Sep-24 21:33N 23°02' E 113°31'6121102035.4
2016-Sep-24 21:33N 29°49' E 122°01'465167444.2
2016-Sep-24 21:33N 37°34' E 121°25'5090286338.7
2016-Sep-24 21:32N 49°18' W 122°54'5448210887.4
2016-Sep-24 21:31N 29°54' E 121°59'91520.2
2016-Sep-24 21:20N 31°23' E 121°38'662372.5
2016-Sep-24 19:33N 23°02' E 113°31'660263961.7
2016-Sep-24 19:33N 31°26' E 121°29'84100.3
2016-Sep-24 19:33N 31°23' E 121°38'371102640.2
2016-Sep-24 19:33N 37°34' E 121°25'46517813.3
2016-Sep-24 19:31N 29°49' E 122°01'521.4
2016-Sep-24 19:18N 29°54' E 121°59'148714.9
2016-Sep-24 19:05N 31°59' E 120°26'338624.8
2016-Sep-24 18:33N 37°34' E 121°25'465418613.4
2016-Sep-24 18:33N 29°49' E 122°01'51256.0
2016-Sep-24 18:32N 29°54' E 121°59'9181811.2
2016-Sep-24 18:32N 31°23' E 121°38'66230185.8
2016-Sep-24 18:31N 23°02' E 113°31'6191108723.5
2016-Sep-24 18:28N 49°18' W 122°54'50915631.8
2016-Sep-24 17:33N 37°34' E 121°25'46569768.9
2016-Sep-24 17:33N 29°49' E 122°01'612129653.9
2016-Sep-24 17:33N 23°02' E 113°31'6191348255.1
2016-Sep-24 17:32N 49°18' W 122°54'5448185025.5
2016-Sep-24 17:30N 29°54' E 121°59'613118332.5
2016-Sep-24 17:10N 33°37' W 117°55'613310090.5
2016-Sep-24 16:33N 29°49' E 122°01'465239207.6
2016-Sep-24 16:33N 37°34' E 121°25'5091591156.7
2016-Sep-24 16:33N 49°18' W 122°54'5448107761.1
2016-Sep-24 16:30N 29°54' E 121°59'61417012.4
2016-Sep-24 16:28N 23°02' E 113°31'6297831.7
2016-Sep-24 16:23N 29°56' E 122°19'17 9.3
2016-Sep-24 14:33N 29°49' E 122°01'465837210.1
2016-Sep-24 14:33N 37°34' E 121°25'370222014.7
2016-Sep-24 14:33N 31°24' E 121°33'5392524655.1
2016-Sep-24 14:32N 49°18' W 122°54'5448594323.9
2016-Sep-24 14:32N 29°54' E 121°59'61455290.7
2016-Sep-24 14:31N 23°02' E 113°31'659335.8
2016-Sep-24 12:33N 31°33' E 121°20'65987911.3
2016-Sep-24 12:33N 23°02' E 113°31'963866795.8
2016-Sep-24 12:33N 37°34' E 121°25'4656366.7
2016-Sep-24 12:28N 29°49' E 122°01'566.0
2016-Sep-24 12:24N 29°54' E 121°59'148623.7
2016-Sep-24 12:10N 31°59' E 120°26'5413749514.1
2016-Sep-24 12:09N 49°18' W 122°54'53943380.5
2016-Sep-24 10:34N 31°37' E 121°16'66146653.1
2016-Sep-24 10:33N 23°02' E 113°31'963216698.9
2016-Sep-24 10:32N 37°34' E 121°25'50912617973.9
2016-Sep-24 10:32N 49°18' W 122°54'545176651.8
2016-Sep-24 10:28N 29°49' E 122°01'108118.9
2016-Sep-24 09:34N 31°31' E 121°19'658215384.8
2016-Sep-24 09:33N 23°02' E 113°31'963216689.1
2016-Sep-24 09:33N 37°34' E 121°25'36221030.8
2016-Sep-24 09:32N 31°31' E 121°23'53931294394.4
2016-Sep-24 09:32N 49°18' W 122°54'545168372.4
2016-Sep-24 09:27N 29°49' E 122°01'515.7
2016-Sep-24 09:08N 29°54' E 121°59'10318.5
2016-Sep-24 03:33N 31°31' E 121°19'539719427821.6
2016-Sep-24 03:33N 49°18' W 122°54'50906108569.8
2016-Sep-24 03:33N 37°34' E 121°25'36914450.8
2016-Sep-24 03:32N 31°24' E 121°35'9814053.7
2016-Sep-24 03:31N 29°49' E 122°01'6123498.3
2016-Sep-24 03:21N 23°02' E 113°31'658834.0
2016-Sep-24 02:34N 31°31' E 121°19'362100322.1
2016-Sep-24 02:33N 37°34' E 121°25'4655265.6
2016-Sep-24 02:28N 29°49' E 122°01'962778.7
2016-Sep-24 02:26N 31°22' E 121°28'5398208950.4
2016-Sep-24 02:24N 49°18' W 122°54'539157587.9
2016-Sep-24 02:19N 31°24' E 121°35'931269.1
2016-Sep-24 02:14N 29°54' E 121°59'103151.5
2016-Sep-24 01:33N 31°31' E 121°19'362260838.1
2016-Sep-24 01:33N 37°34' E 121°25'33818743.5
2016-Sep-24 01:32N 31°59' E 120°26'65115845.3
2016-Sep-24 01:30N 23°01' E 113°32'61211601.0
2016-Sep-24 01:27N 29°49' E 122°01'545151775.4
2016-Sep-24 01:20N 49°18' W 122°54'590344930.6
2016-Sep-24 01:12N 24°29' E 118°04'456701.8
2016-Sep-24 00:33N 31°31' E 121°19'362130414.5
2016-Sep-24 00:33N 37°34' E 121°25'36913994.3
2016-Sep-24 00:32N 31°24' E 121°35'66252926.6
2016-Sep-24 00:31N 23°01' E 113°32'612122417.5
2016-Sep-24 00:31N 29°49' E 122°01'38699305.1
2016-Sep-24 00:30N 24°26' E 118°04'5906228627.0
2016-Sep-24 00:29N 49°18' W 122°54'541323881.7
2016-Sep-24 00:15N 31°59' E 120°26'5311.2
2016-Sep-23 19:33N 31°31' E 121°19'53979713748.6
2016-Sep-23 19:33N 49°18' W 122°54'50916108615.6
2016-Sep-23 19:33N 37°34' E 121°25'36128266.8
2016-Sep-23 19:33N 31°32' E 121°21'1082486.3
2016-Sep-23 19:30N 29°49' E 122°01'6123949.3
2016-Sep-23 19:21N 23°02' E 113°31'6292505.9
2016-Sep-23 19:06N 29°55' E 122°20'11071.4
2016-Sep-23 17:34N 31°31' E 121°19'65891096.0
2016-Sep-23 17:33N 23°02' E 113°31'61914457599.7
2016-Sep-23 17:33N 49°18' W 122°53'5394719175.8
2016-Sep-23 17:33N 31°24' E 121°31'9810999.9
2016-Sep-23 17:32N 29°53' E 122°15'7372617157.5
2016-Sep-23 17:31N 05°18' W 004°02'7357563506.5
2016-Sep-23 17:31N 29°54' E 121°59'51758.4
2016-Sep-23 17:30N 29°49' E 122°01'108114.0
2016-Sep-23 16:33N 31°31' E 121°19'10813414.3
2016-Sep-23 16:33N 29°49' E 122°01'4651674453.4
2016-Sep-23 16:33N 37°34' E 121°25'72692616936.4
2016-Sep-23 16:33N 05°17' W 004°02'7367390026.5
2016-Sep-23 16:32N 29°53' E 122°10'62039186.8
2016-Sep-23 16:31N 23°02' E 113°31'61481895.5
2016-Sep-23 16:30N 29°54' E 121°59'8322959.4
2016-Sep-23 16:30N 31°16' E 121°45'806664.4
2016-Sep-23 16:29N 31°59' E 120°26'226.5
2016-Sep-23 16:25N 31°58' E 120°24'5463.2
2016-Sep-23 15:34N 31°31' E 121°19'10812486.2
2016-Sep-23 15:33N 29°53' E 122°10'9222185.5
2016-Sep-23 15:33N 31°21' E 121°38'7327909515.0
2016-Sep-23 15:32N 05°17' W 004°02'72692379052.9
2016-Sep-23 15:32N 37°34' E 121°25'50919162929.3
2016-Sep-23 15:32N 49°18' W 122°54'5451478611.4
2016-Sep-23 15:31N 29°49' E 122°01'5244.2
2016-Sep-23 15:30N 29°54' E 121°59'61424568.8
2016-Sep-23 15:29N 23°02' E 113°31'658342.7
2016-Sep-23 13:33N 31°31' E 121°19'362130408.0
2016-Sep-23 13:33N 37°33' E 121°25'34342557.9
2016-Sep-23 13:33N 31°56' E 120°14'15619387.8
2016-Sep-23 13:32N 29°49' E 122°01'54511154288.0
2016-Sep-23 13:32N 49°18' W 122°54'54151218407.5
2016-Sep-23 13:32N 31°58' E 120°24'15569647.8
2016-Sep-23 13:32N 29°53' E 122°10'9289.9
2016-Sep-23 13:30N 29°54' E 121°59'6147370.6
2016-Sep-23 13:25N 23°02' E 113°31'658170.7
2016-Sep-23 09:34N 31°31' E 121°19'3641311562.2
2016-Sep-23 09:33N 37°36' E 121°25'458549205.2
2016-Sep-23 09:33N 29°59' E 122°08'6231121617.5
2016-Sep-23 09:33N 23°02' E 113°31'61256526.0
2016-Sep-23 09:33N 29°49' E 122°01'5451490547.8
2016-Sep-23 09:32N 49°18' W 122°54'5451301890.6
2016-Sep-23 09:31N 29°49' E 122°01'1549745.2
2016-Sep-23 09:30N 31°58' E 120°22'1508690.1
2016-Sep-23 09:29N 29°54' E 121°59'149526.5
2016-Sep-23 09:12N 31°58' E 120°23'14956.6
2016-Sep-23 06:34N 29°54' E 121°59'93003.4
2016-Sep-23 06:33N 29°56' E 122°10'103039.9
2016-Sep-23 06:33N 29°49' E 122°01'0 7.6
2016-Sep-23 06:31N 29°49' E 122°01'15412342.1
2016-Sep-23 06:30N 31°58' E 120°22'5416152328.5
2016-Sep-23 06:28N 49°18' W 122°54'5416163843.6
2016-Sep-23 06:26N 31°58' E 120°23'54162852.6
2016-Sep-23 04:32N 49°18' W 122°54'5451392438.6
2016-Sep-23 04:31N 29°49' E 122°01'015.0
2016-Sep-23 04:30N 29°49' E 122°01'153705.2
2016-Sep-23 04:17N 31°59' E 120°26'1591363.7
2016-Sep-23 04:10N 29°51' E 122°18'1 1.8
2016-Sep-23 03:33N 29°52' E 122°17'14887.6
2016-Sep-23 03:32N 29°49' E 122°01'54511308128.0
2016-Sep-23 03:32N 49°18' W 122°54'54136495710.7
2016-Sep-23 03:32N 31°59' E 120°26'15311688.8
2016-Sep-23 03:31N 29°49' E 122°01'1542072.4
2016-Sep-23 03:27N 31°58' E 120°22'1501356.9
2016-Sep-23 03:20N 29°54' E 121°59'1721.6
2016-Sep-23 02:33N 29°56' E 122°19'1589316.6
2016-Sep-23 02:32N 31°58' E 120°22'41298802.9
2016-Sep-23 02:32N 25°13' E 118°59'3206655.4
2016-Sep-23 02:29N 29°49' E 122°01'5234.4
2016-Sep-23 02:28N 29°54' E 121°59'5448106013.7
2016-Sep-23 02:25N 49°18' W 122°54'5416137295.1
2016-Sep-23 02:22N 31°58' E 120°23'337.0
2016-Sep-23 02:18N 31°59' E 120°26'54137151.3
2016-Sep-23 01:33N 49°18' W 122°54'545176952.6
2016-Sep-23 01:28N 29°49' E 122°01'6126951.4
2016-Sep-23 01:23N 23°02' E 113°31'6294351.6
2016-Sep-23 01:14N 29°56' E 122°19'54317710.3
2016-Sep-23 00:32N 49°18' W 122°54'5451268806.7
2016-Sep-23 00:31N 29°49' E 122°01'5247.7
2016-Sep-23 00:30N 29°54' E 121°59'13109.3
2016-Sep-23 00:23N 29°52' E 122°14'1214.3
2016-Sep-22 23:32N 29°49' E 122°01'54512452859.8
2016-Sep-22 23:32N 49°18' W 122°54'619125098.6
2016-Sep-22 23:17N 23°02' E 113°31'61412930.5
2016-Sep-22 23:15N 29°54' E 121°59'613133749.7
2016-Sep-22 23:04N 33°37' W 117°55'61332447.7
2016-Sep-22 20:33N 29°49' E 122°01'61291824.5
2016-Sep-22 20:33N 23°02' E 113°31'6191586524.1
2016-Sep-22 20:32N 49°18' W 122°54'5432103457.6
2016-Sep-22 20:29N 29°56' E 122°19'1745.1
2016-Sep-22 20:07N 29°54' E 121°59'47863.3
2016-Sep-22 12:33N 37°51' E 121°09'478344080.3
2016-Sep-22 12:33N 29°56' E 122°19'9649266.7
2016-Sep-22 12:33N 31°24' E 121°34'9715942.6
2016-Sep-22 12:33N 29°49' E 122°01'54511154288.0
2016-Sep-22 12:32N 49°18' W 122°54'5448147462.5
2016-Sep-22 12:30N 29°54' E 121°59'61411638.9
2016-Sep-22 12:27N 23°02' E 113°31'6264854.5
2016-Sep-22 12:19N 29°55' E 122°16'35445.6
2016-Sep-22 04:34N 24°48' E 118°57'5846339464.3
2016-Sep-22 04:32N 49°18' W 122°54'54161499849.4
2016-Sep-22 04:32N 31°58' E 120°22'34087429.1
2016-Sep-22 04:32N 37°35' E 121°23'46236131.2
2016-Sep-22 04:31N 29°55' E 122°10'62232920.7
2016-Sep-22 04:30N 23°02' E 113°31'6298738.3
2016-Sep-22 04:26N 29°56' E 122°19'172277.5
2016-Sep-22 04:25N 29°49' E 122°01'108979.1
2016-Sep-22 04:19N 31°31' E 121°18'0 0.0
2016-Sep-22 03:33N 31°31' E 121°18'416249560.0
2016-Sep-22 03:33N 24°52' E 119°04'5837420263.3
2016-Sep-22 03:32N 49°18' W 122°54'5090631916.9
2016-Sep-22 03:32N 37°35' E 121°23'46645371.4
2016-Sep-22 03:31N 29°49' E 122°01'54511838.4
2016-Sep-22 00:33N 49°18' W 122°54'5398231333.8
2016-Sep-22 00:32N 31°31' E 121°18'364327263.0
2016-Sep-22 00:32N 37°35' E 121°23'96346234.8
2016-Sep-22 00:31N 23°02' E 113°31'61226223.7
2016-Sep-22 00:29N 29°49' E 122°01'922249.7
2016-Sep-22 00:27N 31°20' E 121°41'2225.1
2016-Sep-21 23:33N 31°31' E 121°18'124483.0
2016-Sep-21 23:33N 31°25' E 121°31'9910835.5
2016-Sep-21 23:33N 29°49' E 122°01'46640944.9
2016-Sep-21 23:32N 37°35' E 121°23'9647334.3
2016-Sep-21 23:24N 23°02' E 113°31'6121926.6
2016-Sep-21 23:05N 29°47' E 122°02'814.8
2016-Sep-21 22:33N 29°54' E 122°06'10594592.4
2016-Sep-21 22:33N 31°31' E 121°18'36420139.3
2016-Sep-21 22:32N 37°35' E 121°23'46612077.3
2016-Sep-21 22:30N 29°49' E 122°01'61229783.9
2016-Sep-21 22:28N 23°02' E 113°31'61110482.3
2016-Sep-21 22:25N 29°47' E 122°02'17 6.1
2016-Sep-21 19:33N 29°56' E 122°19'158284113.6
2016-Sep-21 19:33N 31°58' E 120°22'5416349.3
2016-Sep-21 19:33N 31°31' E 121°18'1039794.1
2016-Sep-21 19:32N 29°54' E 121°59'462332298.3
2016-Sep-21 19:32N 37°35' E 121°23'58945304169.4
2016-Sep-21 19:32N 33°37' W 117°55'6133394248.1
2016-Sep-21 19:31N 29°49' E 122°01'6124150.5
2016-Sep-21 19:22N 23°02' E 113°31'657233.6
2016-Sep-21 16:33N 31°31' E 121°18'6571182586.0
2016-Sep-21 16:33N 23°02' E 113°31'6122203936.5
2016-Sep-21 16:33N 29°49' E 122°01'9769834.0
2016-Sep-21 16:33N 31°24' E 121°35'7142751.7
2016-Sep-21 16:33N 31°58' E 120°22'34018000.4
2016-Sep-21 16:32N 37°35' E 121°23'46253596.5
2016-Sep-21 16:32N 29°54' E 121°59'171753.5
2016-Sep-21 16:31N 29°56' E 122°19'1647.1
2016-Sep-21 16:10N 29°57' E 121°60'485.7
2016-Sep-21 16:07N 29°60' E 121°56'45969.9
2016-Sep-21 09:33N 37°38' E 121°25'367165104.4
2016-Sep-21 09:33N 31°31' E 121°19'658197442.2
2016-Sep-21 09:33N 23°02' E 113°31'65781564.8
2016-Sep-21 09:32N 31°31' E 121°18'10897410.9
2016-Sep-21 09:32N 29°49' E 122°01'15339236.2
2016-Sep-21 09:32N 31°58' E 120°26'1484976.8
2016-Sep-21 09:30N 29°54' E 121°59'925346.7
2016-Sep-21 09:29N 31°24' E 121°36'1718.1
2016-Sep-21 08:33N 31°31' E 121°18'367660748.1
2016-Sep-21 08:33N 37°38' E 121°25'3768109.9
2016-Sep-21 08:31N 31°22' E 121°38'9010779.8
2016-Sep-21 08:30N 29°54' E 121°59'53516.7
2016-Sep-21 08:30N 29°49' E 122°01'1063309.3
2016-Sep-21 08:28N 31°30' E 121°24'6603649.4
2016-Sep-21 08:17N 23°02' E 113°31'967353.8
2016-Sep-21 05:33N 37°38' E 121°25'36719152.4
2016-Sep-21 05:32N 31°31' E 121°18'1032464.7
2016-Sep-21 05:30N 29°54' E 121°59'10353.4
2016-Sep-21 03:33N 31°31' E 121°18'374134641.6
2016-Sep-21 03:33N 37°45' E 121°17'4778025.8
2016-Sep-21 03:30N 29°49' E 122°01'518.9
2016-Sep-21 03:14N 29°54' E 121°59'61441726.7
2016-Sep-21 03:13N 23°02' E 113°31'657988.8
2016-Sep-21 02:33N 31°31' E 121°18'380114081.5
2016-Sep-21 02:33N 37°51' E 121°10'4793117.9
2016-Sep-21 02:24N 29°54' E 121°59'536.7
2016-Sep-21 02:16N 29°49' E 122°01'  
Track history (hours):
 
Tides and Currents Weather Stations Pressure Air Temp Water Temp Dewpoint Dewpoint Depression Visibility Wind Speed Wind Dir Waves Ship Positions

Graceful Lady

Last reported at 2016-Oct-01 00:33 UTC. Time now 2016-Oct-01 01:33 UTC.
Position N 23°01' E 113°32'.

Length 6 m.

Type: Pollution control. MMSI: 316014038.

Date/timePositionNaut miles runAvg speedWind from/ knotsBaromVisibWave heightAir tempDewpointWater temp
2016-Oct-01 00:33N 23°01' E 113°32'6141105654.3
2016-Oct-01 00:33N 29°54' E 121°59'462332929.1
2016-Oct-01 00:33N 37°36' E 121°25'467420466.0
2016-Oct-01 00:33N 29°49' E 122°01'184212.1
2016-Oct-01 00:33N 29°55' E 122°20'33413969.8
2016-Oct-01 00:32N 25°07' E 119°09'401203.3
2016-Sep-30 22:33N 31°31' E 121°19'10978683.1
2016-Sep-30 22:33N 29°53' E 122°15'1315421.4
2016-Sep-30 22:33N 29°49' E 122°01'467186873.8
2016-Sep-30 22:33N 37°36' E 121°25'34314873.9
2016-Sep-30 22:32N 31°57' E 120°18'6461875.5
2016-Sep-30 22:11N 23°01' E 113°32'61476251.5
2016-Sep-30 22:11N 29°54' E 121°59'9760.1
2016-Sep-30 20:33N 31°28' E 121°27'10493154.5
2016-Sep-30 20:33N 29°51' E 122°10'46559743.1
2016-Sep-30 20:33N 37°34' E 121°25'46622347.4
2016-Sep-30 20:32N 29°49' E 122°01'61315546.0
2016-Sep-30 20:29N 23°00' E 113°31'61524076.5
2016-Sep-30 20:28N 29°54' E 121°59'10 3.5
2016-Sep-30 17:33N 29°51' E 122°10'9887896.8
2016-Sep-30 17:33N 31°24' E 121°35'9749801.3
2016-Sep-30 17:33N 29°49' E 122°01'466419024.9
2016-Sep-30 17:33N 37°34' E 121°25'964108448.1
2016-Sep-30 17:33N 23°01' E 113°32'61473715.1
2016-Sep-30 17:32N 29°54' E 121°59'9 9.5
2016-Sep-30 16:33N 29°52' E 122°10'92564.2
2016-Sep-30 16:33N 29°49' E 122°01'466119723.8
2016-Sep-30 16:33N 37°34' E 121°25'825601.6
2016-Sep-30 16:32N 36°42' E 122°45'3273214.3
2016-Sep-30 16:26N 31°19' E 121°42'6629773.6
2016-Sep-30 16:22N 23°01' E 113°32'614737102.8
2016-Sep-30 16:22N 29°54' E 121°59'532294.6
2016-Sep-30 14:34N 38°18' E 118°33'21436659.2
2016-Sep-30 14:33N 37°02' E 122°46'7211240.6
2016-Sep-30 14:33N 37°34' E 121°25'466152367.9
2016-Sep-30 14:33N 29°49' E 122°01'470473.3
2016-Sep-30 13:33N 37°38' E 121°24'470281930.5
2016-Sep-30 13:33N 29°49' E 122°01'4481633.0
2016-Sep-30 13:16N 37°15' E 122°47'4433529.4
2016-Sep-30 13:09N 29°54' E 121°59'2421957.8
2016-Sep-30 13:09N 30°18' E 121°56'23761.6
2016-Sep-30 13:07N 29°56' E 122°01'7 2.5
2016-Sep-30 10:31N 29°49' E 122°01'29105225.5
2016-Sep-30 10:31N 30°18' E 121°56'24195.6
2016-Sep-30 10:23N 29°54' E 121°59'5 2.6
2016-Sep-30 08:33N 29°49' E 122°01'291570.5
2016-Sep-30 08:32N 30°18' E 121°56'24229.9
2016-Sep-30 08:25N 29°54' E 121°59'6447.5
2016-Sep-30 08:25N 29°55' E 122°07'11353.8
2016-Sep-30 08:23N 29°56' E 122°19'5 2.7
2016-Sep-30 06:33N 29°51' E 122°18'448402983.0
2016-Sep-30 06:33N 23°40' E 117°37'43814594.4
2016-Sep-30 06:31N 29°49' E 122°01'5257.3
2016-Sep-30 06:30N 29°54' E 121°59'2486.1
2016-Sep-30 06:13N 30°18' E 121°56'9033.9
2016-Sep-30 03:33N 31°40' E 121°12'220.8
2016-Sep-30 03:28N 31°39' E 121°14'8 9.3
2016-Sep-30 02:33N 31°33' E 121°21'3159.0
2016-Sep-30 02:32N 31°36' E 121°18'4 1.3
2016-Sep-29 23:34N 31°32' E 121°20'38818376.6
2016-Sep-29 23:32N 37°59' E 120°55'493104364.7
2016-Sep-29 23:32N 29°49' E 122°01'522.4
2016-Sep-29 23:19N 29°54' E 121°59'19639.2
2016-Sep-29 23:17N 30°06' E 122°16'61103527.0
2016-Sep-29 21:33N 33°37' W 117°55'614411058646.9
2016-Sep-29 21:33N 31°57' E 120°18'586153.5
2016-Sep-29 21:33N 31°32' E 121°20'1081402.3
2016-Sep-29 21:28N 29°49' E 122°01'15310767.7
2016-Sep-29 21:27N 31°58' E 120°26'1561464.9
2016-Sep-29 21:21N 29°56' E 122°19'4763348.7
2016-Sep-29 21:12N 37°49' E 121°11'378584.6
2016-Sep-29 20:33N 31°32' E 121°20'11199555.4
2016-Sep-29 20:33N 29°52' E 122°16'1412533.1
2016-Sep-29 20:33N 29°49' E 122°01'478344322.5
2016-Sep-29 20:33N 37°46' E 121°15'38977870.6
2016-Sep-29 20:33N 31°17' E 121°44'862267.8
2016-Sep-29 20:31N 31°56' E 120°14'1521249.2
2016-Sep-29 20:23N 29°54' E 121°59'468563.8
2016-Sep-29 19:34N 37°41' E 121°21'37070013.9
2016-Sep-29 19:33N 31°32' E 121°20'103124131.5
2016-Sep-29 19:33N 29°54' E 121°59'9120513.1
2016-Sep-29 19:33N 31°23' E 121°35'9932317.8
2016-Sep-29 19:33N 29°51' E 122°18'1665023.7
2016-Sep-29 19:31N 31°56' E 120°10'158113895.5
2016-Sep-29 19:31N 29°49' E 122°01'6133883116.3
2016-Sep-29 19:30N 33°37' W 117°55'6104142689.7
2016-Sep-29 19:28N 31°17' E 121°34'377129.7
2016-Sep-29 16:33N 37°34' E 121°24'371267363.1
2016-Sep-29 16:33N 31°23' E 121°35'9669200.1
2016-Sep-29 16:33N 29°49' E 122°01'15341.7
2016-Sep-29 16:30N 29°51' E 122°18'16194.7
2016-Sep-29 16:25N 29°54' E 121°59'1481391.9
2016-Sep-29 16:19N 31°59' E 120°27'5268.5
2016-Sep-29 15:33N 31°32' E 121°20'3621304216.1
2016-Sep-29 15:33N 37°34' E 121°24'463417118.3
2016-Sep-29 15:33N 29°53' E 122°16'151675.0
2016-Sep-29 15:32N 29°54' E 121°59'51461.8
2016-Sep-29 15:32N 29°49' E 122°01'466472.2
2016-Sep-29 14:33N 37°34' E 121°24'46134572.0
2016-Sep-29 14:32N 29°54' E 121°59'5216.3
2016-Sep-29 14:31N 29°49' E 122°01'1081092.9
2016-Sep-29 14:25N 31°32' E 121°20'1071743.5
2016-Sep-29 14:21N 29°59' E 122°21'155597.5
2016-Sep-29 14:06N 31°58' E 120°25'5399.0
2016-Sep-29 13:33N 31°32' E 121°20'36265221.6
2016-Sep-29 13:33N 37°34' E 121°24'466152421.7
2016-Sep-29 13:33N 29°49' E 122°01'588.4
2016-Sep-29 13:30N 29°54' E 121°59'851800.4
2016-Sep-29 13:27N 31°17' E 121°44'79695.7
2016-Sep-29 13:20N 30°04' E 122°19'97742.7
2016-Sep-29 13:12N 31°30' E 121°26'6 1.2
2016-Sep-29 08:33N 31°32' E 121°20'121145797.8
2016-Sep-29 08:33N 29°32' E 121°41'376410.5
2016-Sep-29 08:33N 29°52' E 122°17'1574137.4
2016-Sep-29 08:31N 31°58' E 120°27'15291340.2
2016-Sep-29 08:31N 29°49' E 122°01'47065031.5
2016-Sep-29 08:30N 37°38' E 121°25'46519460.7
2016-Sep-29 08:29N 29°54' E 121°59'1617.8
2016-Sep-29 07:33N 29°51' E 122°18'11226947.0
2016-Sep-29 07:33N 31°32' E 121°20'366659493.4
2016-Sep-29 07:33N 37°38' E 121°25'47018578.9
2016-Sep-29 07:32N 29°49' E 122°01'5450.3
2016-Sep-29 07:31N 29°54' E 121°59'6146581.0
2016-Sep-29 07:25N 23°01' E 113°32'65996.0
2016-Sep-29 00:33N 31°30' E 121°23'1097872.9
2016-Sep-29 00:32N 29°51' E 122°18'1513172.8
2016-Sep-29 00:32N 29°49' E 122°01'612115987.6
2016-Sep-29 00:32N 23°01' E 113°32'3236953.2
2016-Sep-29 00:29N 25°15' E 118°53'3997285.6
2016-Sep-29 00:26N 31°32' E 121°20'0 0.0
2016-Sep-28 21:33N 31°32' E 121°20'10920569.9
2016-Sep-28 21:33N 29°49' E 122°01'61244986.5
2016-Sep-28 21:32N 23°01' E 113°32'61211074.3
2016-Sep-28 21:29N 29°49' E 122°01'10956.4
2016-Sep-28 19:34N 31°32' E 121°20'659103164.3
2016-Sep-28 19:33N 23°01' E 113°32'61912965.4
2016-Sep-28 19:30N 29°54' E 122°07'750.5
2016-Sep-28 19:22N 29°49' E 122°01'545127637.9
2016-Sep-28 19:10N 49°18' W 122°54'54422088.4
2016-Sep-28 16:33N 29°54' E 122°07'712892.3
2016-Sep-28 16:33N 29°49' E 122°01'10965202.5
2016-Sep-28 16:33N 31°32' E 121°20'1094952.1
2016-Sep-28 16:32N 29°49' E 122°01'5449560478.2
2016-Sep-28 16:31N 49°18' W 122°56'543036199.2
2016-Sep-28 16:22N 29°56' E 122°19'1720.6
2016-Sep-28 15:33N 29°49' E 122°01'109195617.9
2016-Sep-28 15:33N 31°32' E 121°20'10647561.3
2016-Sep-28 15:33N 29°54' E 122°07'5441890302.1
2016-Sep-28 15:33N 49°18' W 122°55'5430574978.3
2016-Sep-28 15:32N 29°56' E 122°19'172661.6
2016-Sep-28 15:32N 29°49' E 122°01'612205.7
2016-Sep-28 12:33N 23°01' E 113°32'659474530.1
2016-Sep-28 12:33N 31°32' E 121°20'10978223.0
2016-Sep-28 12:33N 29°49' E 122°01'766.0
2016-Sep-28 12:27N 29°54' E 122°07'544224893.4
2016-Sep-28 12:14N 49°18' W 122°54'543260914.9
2016-Sep-28 12:08N 29°56' E 122°19'0 0.0
2016-Sep-28 08:33N 29°56' E 122°19'10855782.1
2016-Sep-28 08:33N 31°32' E 121°20'803520.8
2016-Sep-28 08:32N 30°18' E 121°56'30 5.9
2016-Sep-28 03:33N 29°56' E 122°19'10919544.3
2016-Sep-28 03:33N 31°32' E 121°20'109195607.7
2016-Sep-28 03:33N 29°49' E 122°01'5451225543.0
2016-Sep-28 03:32N 49°18' W 122°54'5436250905.8
2016-Sep-28 03:30N 29°55' E 122°13'12159.4
2016-Sep-28 03:26N 29°49' E 122°01'15614418.3
2016-Sep-28 03:25N 32°00' E 120°21'1536069.2
2016-Sep-28 03:23N 29°54' E 122°02'1057.7
2016-Sep-28 03:13N 29°45' E 121°57'112168.7
2016-Sep-28 02:33N 31°32' E 121°20'109391235.8
2016-Sep-28 02:33N 29°49' E 122°01'8844.1
2016-Sep-28 02:33N 29°55' E 122°07'8231.5
2016-Sep-28 02:31N 29°49' E 122°01'171071.6
2016-Sep-28 02:30N 29°56' E 122°19'6292681.1
2016-Sep-28 02:16N 23°01' E 113°32'6569119.4
2016-Sep-28 02:12N 32°04' E 120°27'154110758.2
2016-Sep-28 02:12N 29°54' E 122°02'1422.8
2016-Sep-28 01:33N 29°56' E 122°19'62990510.5
2016-Sep-28 01:33N 23°01' E 113°32'65929662.5
2016-Sep-28 01:32N 31°32' E 121°20'1094952.9
2016-Sep-28 01:30N 29°49' E 122°01'4303.6
2016-Sep-28 01:29N 29°54' E 122°02'544686753.0
2016-Sep-28 01:26N 49°18' W 122°54'539274662.4
2016-Sep-28 01:21N 31°23' E 121°34'93319.8
2016-Sep-28 01:04N 29°55' E 122°07'10670.1
2016-Sep-27 23:33N 31°32' E 121°20'56087589.7
2016-Sep-27 23:33N 23°11' E 116°39'50629401.2
2016-Sep-27 23:32N 29°56' E 122°19'175523.0
2016-Sep-27 23:32N 29°49' E 122°01'4111.2
2016-Sep-27 23:30N 29°54' E 122°02'61612891.7
2016-Sep-27 23:27N 23°02' E 113°31'6203420.8
2016-Sep-27 23:16N 29°55' E 122°07'7177.8
2016-Sep-27 23:13N 29°49' E 122°01'9525.8
2016-Sep-27 19:33N 31°22' E 121°37'93698.8
2016-Sep-27 19:33N 31°27' E 121°28'463185084.7
2016-Sep-27 19:33N 24°26' E 117°51'25420300.7
2016-Sep-27 19:32N 23°01' E 113°30'66028975.1
2016-Sep-27 19:31N 31°32' E 121°20'10926069.0
2016-Sep-27 19:31N 29°49' E 122°01'51946.8
2016-Sep-27 19:30N 29°54' E 121°59'5257.2
2016-Sep-27 19:29N 29°49' E 122°01'1776.3
2016-Sep-27 19:16N 29°56' E 122°19'1099.5
2016-Sep-27 19:10N 29°55' E 122°07'10 2.3
2016-Sep-27 14:33N 29°56' E 122°19'10955880.4
2016-Sep-27 14:33N 31°32' E 121°20'10926100.0
2016-Sep-27 14:33N 29°49' E 122°01'120216061.7
2016-Sep-27 14:33N 31°41' E 121°10'428385562.4
2016-Sep-27 14:33N 38°49' E 121°41'53639373.9
2016-Sep-27 14:32N 29°54' E 122°15'5436889571.0
2016-Sep-27 14:32N 49°18' W 122°54'61917429356.5
2016-Sep-27 14:32N 23°02' E 113°31'66014762.1
2016-Sep-27 14:29N 31°27' E 121°28'24196.9
2016-Sep-27 14:22N 31°44' E 121°07'1231562.5
2016-Sep-27 14:17N 29°49' E 122°01'93128.9
2016-Sep-27 13:33N 31°21' E 121°40'6622383583.0
2016-Sep-27 13:33N 23°02' E 113°31'660216130.7
2016-Sep-27 13:33N 31°39' E 121°13'11752669.2
2016-Sep-27 13:33N 29°49' E 122°01'171374.3
2016-Sep-27 13:32N 29°56' E 122°19'17565.3
2016-Sep-27 13:31N 29°49' E 122°01'545185689.6
2016-Sep-27 13:27N 49°18' W 122°54'53951867.0
2016-Sep-27 10:33N 31°32' E 121°20'5395571261.2
2016-Sep-27 10:33N 49°18' W 122°54'54511509453.6
2016-Sep-27 10:33N 29°49' E 122°01'612244899.5
2016-Sep-27 10:32N 23°02' E 113°31'660108069.3
2016-Sep-27 10:32N 31°39' E 121°13'21105.3
2016-Sep-27 10:20N 31°25' E 121°31'94410.3
2016-Sep-27 10:06N 29°54' E 121°59'10511.0
2016-Sep-27 00:33N 31°33' E 121°19'104124709.5
2016-Sep-27 00:33N 29°57' E 122°04'8935756.9
2016-Sep-27 00:33N 31°23' E 121°34'5392924408.9
2016-Sep-27 00:33N 49°18' W 122°54'59044250951.5
2016-Sep-27 00:33N 24°28' E 118°04'26536645.9
2016-Sep-27 00:32N 23°02' E 113°31'64210053.0
2016-Sep-27 00:29N 31°56' E 120°13'1529598.9
2016-Sep-27 00:28N 29°54' E 121°59'517.6
2016-Sep-27 00:11N 29°49' E 122°01'981371.7
2016-Sep-27 00:07N 31°24' E 121°34'53911516.7
2016-Sep-26 20:33N 49°18' W 122°54'53913881730.1
2016-Sep-26 20:33N 31°24' E 121°34'98117054.2
2016-Sep-26 20:33N 29°49' E 122°01'011.7
2016-Sep-26 20:32N 29°49' E 122°01'560.4
2016-Sep-26 20:28N 29°54' E 121°59'91672.0
2016-Sep-26 20:20N 31°23' E 121°37'3 3.7
2016-Sep-26 19:33N 31°24' E 121°34'988563.0
2016-Sep-26 19:33N 29°49' E 122°01'9628782.8
2016-Sep-26 19:33N 31°23' E 121°37'9613818.6
2016-Sep-26 19:32N 29°49' E 122°01'61225629.0
2016-Sep-26 19:31N 23°02' E 113°31'6625416.0
2016-Sep-26 19:23N 31°17' E 121°44'85450.1
2016-Sep-26 19:12N 29°54' E 121°60'615168.5
2016-Sep-26 15:33N 23°02' E 113°31'661476064.0
2016-Sep-26 15:33N 31°24' E 121°34'988783.5
2016-Sep-26 15:32N 29°49' E 122°01'5451408796.6
2016-Sep-26 15:32N 49°18' W 122°54'539097509.9
2016-Sep-26 15:28N 31°24' E 121°36'974516.2
2016-Sep-26 15:27N 29°49' E 122°01'868458.4
2016-Sep-26 13:33N 20°02' E 110°17'868780953.5
2016-Sep-26 13:33N 29°49' E 122°01'5451186884.5
2016-Sep-26 13:32N 49°18' W 122°54'5391588146.6
2016-Sep-26 13:31N 31°24' E 121°34'68356.2
2016-Sep-26 13:20N 32°02' E 120°27'15833486.8
2016-Sep-26 13:19N 29°56' E 122°19'953452.4
2016-Sep-26 13:18N 31°24' E 121°36'9755.6
2016-Sep-26 11:34N 29°49' E 122°01'073.5
2016-Sep-26 11:33N 29°49' E 122°01'612220459.4
2016-Sep-26 11:33N 23°02' E 113°31'64572515.8
2016-Sep-26 11:33N 31°57' E 120°16'5422629668.4
2016-Sep-26 11:32N 49°18' W 122°54'5445141034.5
2016-Sep-26 11:30N 29°53' E 122°03'943902.7
2016-Sep-26 11:28N 31°24' E 121°34'100846.8
2016-Sep-26 11:21N 29°51' E 122°18'982951.7
2016-Sep-26 11:19N 31°20' E 121°32'580.7
2016-Sep-26 11:16N 31°24' E 121°36'6 2.1
2016-Sep-26 08:33N 31°26' E 121°30'39667835.3
2016-Sep-26 08:33N 25°13' E 118°59'39567771.3
2016-Sep-26 08:33N 31°24' E 121°34'9612808.4
2016-Sep-26 08:32N 29°56' E 122°19'173384.0
2016-Sep-26 08:32N 29°54' E 121°59'54481225785.2
2016-Sep-26 08:32N 49°18' W 122°54'5451934392.2
2016-Sep-26 08:31N 29°49' E 122°01'972133.3
2016-Sep-26 08:29N 31°24' E 121°36'39166.7
2016-Sep-26 08:15N 31°47' E 120°60'321134.3
2016-Sep-26 08:13N 31°26' E 121°29'3953217.8
2016-Sep-26 08:06N 25°13' E 118°59'32057.8
2016-Sep-26 02:33N 29°49' E 122°01'54345.7
2016-Sep-26 02:33N 29°54' E 121°59'9325683.3
2016-Sep-26 02:33N 31°24' E 121°34'967065.1
2016-Sep-26 02:32N 29°56' E 122°19'628753400.3
2016-Sep-26 02:32N 23°03' E 113°31'619024039.4
2016-Sep-26 02:17N 49°18' W 122°54'539249517.1
2016-Sep-26 02:10N 31°22' E 121°36'6601068.9
2016-Sep-26 01:33N 23°03' E 113°31'612200154.6
2016-Sep-26 01:33N 29°49' E 122°01'9810035.8
2016-Sep-26 01:32N 31°24' E 121°34'53912772695.1
2016-Sep-26 01:32N 49°18' W 122°54'539285888.1
2016-Sep-26 01:29N 31°22' E 121°36'660718.8
2016-Sep-26 00:33N 23°03' E 113°31'6190557112.9
2016-Sep-26 00:33N 49°18' W 122°54'545120677.4
2016-Sep-26 00:17N 29°49' E 122°01'5186.4
2016-Sep-26 00:15N 29°54' E 121°59'614227.6
2016-Sep-25 21:33N 23°02' E 113°31'612275508.8
2016-Sep-25 21:33N 29°49' E 122°01'9819510.3
2016-Sep-25 21:33N 31°24' E 121°34'5391265874.5
2016-Sep-25 21:32N 49°18' W 122°54'539278586.1
2016-Sep-25 21:28N 31°22' E 121°36'2 0.6
2016-Sep-25 17:33N 31°24' E 121°34'539191985.0
2016-Sep-25 17:30N 49°18' W 122°54'5413927976.2
2016-Sep-25 17:30N 31°59' E 120°26'692745.4
2016-Sep-25 17:28N 31°22' E 121°36'974760.8
2016-Sep-25 17:27N 29°51' E 122°13'54406110.3
2016-Sep-25 16:33N 49°18' W 122°54'53911021507.5
2016-Sep-25 16:33N 31°24' E 121°34'1003747.1
2016-Sep-25 16:31N 29°48' E 122°07'989500.6
2016-Sep-25 16:31N 31°22' E 121°36'66121049.5
2016-Sep-25 16:29N 23°02' E 113°31'6203825.8
2016-Sep-25 16:19N 29°54' E 122°07'4722653.7
2016-Sep-25 16:09N 37°44' E 121°09'50938681.0
2016-Sep-25 15:33N 49°18' W 122°54'53911021506.0
2016-Sep-25 15:33N 31°24' E 121°34'661396758.4
2016-Sep-25 15:33N 23°02' E 113°31'96732229.8
2016-Sep-25 15:31N 37°44' E 121°09'48028341.9
2016-Sep-25 15:30N 29°46' E 122°01'100869.9
2016-Sep-25 15:23N 31°23' E 121°37'70941.7
2016-Sep-25 15:19N 31°59' E 120°26'7093.1
2016-Sep-25 14:33N 31°23' E 121°37'53909701623.0
2016-Sep-25 14:33N 49°18' W 122°54'53919704499.1
2016-Sep-25 14:33N 31°24' E 121°34'661340054.4
2016-Sep-25 14:33N 23°02' E 113°31'9673480821.6
2016-Sep-25 14:33N 37°44' E 121°09'5260.2
2016-Sep-25 14:32N 37°49' E 121°10'14 7.1
2016-Sep-25 12:33N 37°40' E 121°23'968232311.5
2016-Sep-25 12:33N 23°02' E 113°31'6191332660.3
2016-Sep-25 12:32N 49°18' W 122°54'5093195049.1
2016-Sep-25 12:30N 37°44' E 121°09'38065179.1
2016-Sep-25 12:30N 31°24' E 121°34'661699.7
2016-Sep-25 11:33N 23°02' E 113°31'967267748.2
2016-Sep-25 11:33N 37°44' E 121°09'156912.8
2016-Sep-25 11:33N 37°35' E 121°25'5090277611.9
2016-Sep-25 11:32N 49°18' W 122°54'5391208697.2
2016-Sep-25 11:30N 31°24' E 121°34'380398.7
2016-Sep-25 10:33N 37°44' E 121°09'967580114.6
2016-Sep-25 10:33N 23°02' E 113°31'661119020.7
2016-Sep-25 10:33N 31°24' E 121°34'5391431307.5
2016-Sep-25 10:32N 49°18' W 122°54'5091115994.6
2016-Sep-25 10:29N 37°34' E 121°24'4662615.7
2016-Sep-25 10:19N 29°49' E 122°01'98127.5
2016-Sep-25 09:33N 31°24' E 121°34'661125285.8
2016-Sep-25 09:32N 23°02' E 113°31'967870445.6
2016-Sep-25 09:32N 37°41' E 121°18'5089832793.4
2016-Sep-25 09:32N 49°18' W 122°54'5091115265.0
2016-Sep-25 09:29N 37°34' E 121°24'3391337.5
2016-Sep-25 09:14N 31°59' E 120°26'338201.6
2016-Sep-25 07:33N 37°33' E 121°25'465334860.5
2016-Sep-25 07:33N 29°49' E 122°01'9820670.4
2016-Sep-25 07:33N 31°24' E 121°34'37030973.7
2016-Sep-25 07:32N 37°34' E 121°24'5091229089.3
2016-Sep-25 07:31N 49°18' W 122°54'619124200.0
2016-Sep-25 07:16N 23°02' E 113°31'963356.2
2016-Sep-25 04:33N 37°33' E 121°25'36966488.7
2016-Sep-25 04:33N 31°24' E 121°34'9858535.8
2016-Sep-25 04:33N 29°49' E 122°01'46641913.7
2016-Sep-25 04:32N 37°34' E 121°24'50911078067.1
2016-Sep-25 04:32N 49°18' W 122°54'5448114026.5
2016-Sep-25 04:29N 29°54' E 121°59'91570.1
2016-Sep-25 04:20N 31°23' E 121°38'102570.5
2016-Sep-25 04:09N 29°42' E 121°56'477132.9
2016-Sep-25 00:33N 37°39' E 121°24'470846581.5
2016-Sep-25 00:33N 29°49' E 122°01'46555814.4
2016-Sep-25 00:33N 37°34' E 121°25'37153447.3
2016-Sep-25 00:32N 31°22' E 121°37'662238224.4
2016-Sep-25 00:32N 23°02' E 113°31'61432051.9
2016-Sep-25 00:31N 29°54' E 121°59'15522305.9
2016-Sep-25 00:31N 31°57' E 120°09'1676691.1
2016-Sep-25 00:29N 29°51' E 122°18'981425.7
2016-Sep-25 00:25N 31°23' E 121°37'5390776129.5
2016-Sep-25 00:25N 49°18' W 122°54'50912744.2
2016-Sep-24 22:33N 37°34' E 121°25'52675.0
2016-Sep-24 22:33N 37°39' E 121°24'968204912.7
2016-Sep-24 22:33N 23°02' E 113°31'25253424.8
2016-Sep-24 22:33N 24°26' E 117°50'39374405.0
2016-Sep-24 22:32N 29°49' E 122°01'54511783894.0
2016-Sep-24 22:32N 49°18' W 122°54'54311222074.3
2016-Sep-24 22:32N 29°56' E 122°19'948879.6
2016-Sep-24 22:31N 31°23' E 121°38'6097708093.4
2016-Sep-24 22:31N 33°37' W 117°55'6131140588.1
2016-Sep-24 22:28N 29°54' E 121°59'3563862.1
2016-Sep-24 22:23N 24°43' E 118°44'791965.0
2016-Sep-24 21:33N 37°43' E 121°18'9693490190.1
2016-Sep-24 21:33N 23°02' E 113°31'6121102035.4
2016-Sep-24 21:33N 29°49' E 122°01'465167444.2
2016-Sep-24 21:33N 37°34' E 121°25'5090286338.7
2016-Sep-24 21:32N 49°18' W 122°54'5448210887.4
2016-Sep-24 21:31N 29°54' E 121°59'91520.2
2016-Sep-24 21:20N 31°23' E 121°38'662372.5
2016-Sep-24 19:33N 23°02' E 113°31'660263961.7
2016-Sep-24 19:33N 31°26' E 121°29'84100.3
2016-Sep-24 19:33N 31°23' E 121°38'371102640.2
2016-Sep-24 19:33N 37°34' E 121°25'46517813.3
2016-Sep-24 19:31N 29°49' E 122°01'521.4
2016-Sep-24 19:18N 29°54' E 121°59'148714.9
2016-Sep-24 19:05N 31°59' E 120°26'338624.8
2016-Sep-24 18:33N 37°34' E 121°25'465418613.4
2016-Sep-24 18:33N 29°49' E 122°01'51256.0
2016-Sep-24 18:32N 29°54' E 121°59'9181811.2
2016-Sep-24 18:32N 31°23' E 121°38'66230185.8
2016-Sep-24 18:31N 23°02' E 113°31'6191108723.5
2016-Sep-24 18:28N 49°18' W 122°54'50915631.8
2016-Sep-24 17:33N 37°34' E 121°25'46569768.9
2016-Sep-24 17:33N 29°49' E 122°01'612129653.9
2016-Sep-24 17:33N 23°02' E 113°31'6191348255.1
2016-Sep-24 17:32N 49°18' W 122°54'5448185025.5
2016-Sep-24 17:30N 29°54' E 121°59'613118332.5
2016-Sep-24 17:10N 33°37' W 117°55'613310090.5
2016-Sep-24 16:33N 29°49' E 122°01'465239207.6
2016-Sep-24 16:33N 37°34' E 121°25'5091591156.7
2016-Sep-24 16:33N 49°18' W 122°54'5448107761.1
2016-Sep-24 16:30N 29°54' E 121°59'61417012.4
2016-Sep-24 16:28N 23°02' E 113°31'6297831.7
2016-Sep-24 16:23N 29°56' E 122°19'17 9.3
2016-Sep-24 14:33N 29°49' E 122°01'465837210.1
2016-Sep-24 14:33N 37°34' E 121°25'370222014.7
2016-Sep-24 14:33N 31°24' E 121°33'5392524655.1
2016-Sep-24 14:32N 49°18' W 122°54'5448594323.9
2016-Sep-24 14:32N 29°54' E 121°59'61455290.7
2016-Sep-24 14:31N 23°02' E 113°31'659335.8
2016-Sep-24 12:33N 31°33' E 121°20'65987911.3
2016-Sep-24 12:33N 23°02' E 113°31'963866795.8
2016-Sep-24 12:33N 37°34' E 121°25'4656366.7
2016-Sep-24 12:28N 29°49' E 122°01'566.0
2016-Sep-24 12:24N 29°54' E 121°59'148623.7
2016-Sep-24 12:10N 31°59' E 120°26'5413749514.1
2016-Sep-24 12:09N 49°18' W 122°54'53943380.5
2016-Sep-24 10:34N 31°37' E 121°16'66146653.1
2016-Sep-24 10:33N 23°02' E 113°31'963216698.9
2016-Sep-24 10:32N 37°34' E 121°25'50912617973.9
2016-Sep-24 10:32N 49°18' W 122°54'545176651.8
2016-Sep-24 10:28N 29°49' E 122°01'108118.9
2016-Sep-24 09:34N 31°31' E 121°19'658215384.8
2016-Sep-24 09:33N 23°02' E 113°31'963216689.1
2016-Sep-24 09:33N 37°34' E 121°25'36221030.8
2016-Sep-24 09:32N 31°31' E 121°23'53931294394.4
2016-Sep-24 09:32N 49°18' W 122°54'545168372.4
2016-Sep-24 09:27N 29°49' E 122°01'515.7
2016-Sep-24 09:08N 29°54' E 121°59'10318.5
2016-Sep-24 03:33N 31°31' E 121°19'539719427821.6
2016-Sep-24 03:33N 49°18' W 122°54'50906108569.8
2016-Sep-24 03:33N 37°34' E 121°25'36914450.8
2016-Sep-24 03:32N 31°24' E 121°35'9814053.7
2016-Sep-24 03:31N 29°49' E 122°01'6123498.3
2016-Sep-24 03:21N 23°02' E 113°31'658834.0
2016-Sep-24 02:34N 31°31' E 121°19'362100322.1
2016-Sep-24 02:33N 37°34' E 121°25'4655265.6
2016-Sep-24 02:28N 29°49' E 122°01'962778.7
2016-Sep-24 02:26N 31°22' E 121°28'5398208950.4
2016-Sep-24 02:24N 49°18' W 122°54'539157587.9
2016-Sep-24 02:19N 31°24' E 121°35'931269.1
2016-Sep-24 02:14N 29°54' E 121°59'103151.5
2016-Sep-24 01:33N 31°31' E 121°19'362260838.1
2016-Sep-24 01:33N 37°34' E 121°25'33818743.5
2016-Sep-24 01:32N 31°59' E 120°26'65115845.3
2016-Sep-24 01:30N 23°01' E 113°32'61211601.0
2016-Sep-24 01:27N 29°49' E 122°01'545151775.4
2016-Sep-24 01:20N 49°18' W 122°54'590344930.6
2016-Sep-24 01:12N 24°29' E 118°04'456701.8
2016-Sep-24 00:33N 31°31' E 121°19'362130414.5
2016-Sep-24 00:33N 37°34' E 121°25'36913994.3
2016-Sep-24 00:32N 31°24' E 121°35'66252926.6
2016-Sep-24 00:31N 23°01' E 113°32'612122417.5
2016-Sep-24 00:31N 29°49' E 122°01'38699305.1
2016-Sep-24 00:30N 24°26' E 118°04'5906228627.0
2016-Sep-24 00:29N 49°18' W 122°54'541323881.7
2016-Sep-24 00:15N 31°59' E 120°26'5311.2
2016-Sep-23 19:33N 31°31' E 121°19'53979713748.6
2016-Sep-23 19:33N 49°18' W 122°54'50916108615.6
2016-Sep-23 19:33N 37°34' E 121°25'36128266.8
2016-Sep-23 19:33N 31°32' E 121°21'1082486.3
2016-Sep-23 19:30N 29°49' E 122°01'6123949.3
2016-Sep-23 19:21N 23°02' E 113°31'6292505.9
2016-Sep-23 19:06N 29°55' E 122°20'11071.4
2016-Sep-23 17:34N 31°31' E 121°19'65891096.0
2016-Sep-23 17:33N 23°02' E 113°31'61914457599.7
2016-Sep-23 17:33N 49°18' W 122°53'5394719175.8
2016-Sep-23 17:33N 31°24' E 121°31'9810999.9
2016-Sep-23 17:32N 29°53' E 122°15'7372617157.5
2016-Sep-23 17:31N 05°18' W 004°02'7357563506.5
2016-Sep-23 17:31N 29°54' E 121°59'51758.4
2016-Sep-23 17:30N 29°49' E 122°01'108114.0
2016-Sep-23 16:33N 31°31' E 121°19'10813414.3
2016-Sep-23 16:33N 29°49' E 122°01'4651674453.4
2016-Sep-23 16:33N 37°34' E 121°25'72692616936.4
2016-Sep-23 16:33N 05°17' W 004°02'7367390026.5
2016-Sep-23 16:32N 29°53' E 122°10'62039186.8
2016-Sep-23 16:31N 23°02' E 113°31'61481895.5
2016-Sep-23 16:30N 29°54' E 121°59'8322959.4
2016-Sep-23 16:30N 31°16' E 121°45'806664.4
2016-Sep-23 16:29N 31°59' E 120°26'226.5
2016-Sep-23 16:25N 31°58' E 120°24'5463.2
2016-Sep-23 15:34N 31°31' E 121°19'10812486.2
2016-Sep-23 15:33N 29°53' E 122°10'9222185.5
2016-Sep-23 15:33N 31°21' E 121°38'7327909515.0
2016-Sep-23 15:32N 05°17' W 004°02'72692379052.9
2016-Sep-23 15:32N 37°34' E 121°25'50919162929.3
2016-Sep-23 15:32N 49°18' W 122°54'5451478611.4
2016-Sep-23 15:31N 29°49' E 122°01'5244.2
2016-Sep-23 15:30N 29°54' E 121°59'61424568.8
2016-Sep-23 15:29N 23°02' E 113°31'658342.7
2016-Sep-23 13:33N 31°31' E 121°19'362130408.0
2016-Sep-23 13:33N 37°33' E 121°25'34342557.9
2016-Sep-23 13:33N 31°56' E 120°14'15619387.8
2016-Sep-23 13:32N 29°49' E 122°01'54511154288.0
2016-Sep-23 13:32N 49°18' W 122°54'54151218407.5
2016-Sep-23 13:32N 31°58' E 120°24'15569647.8
2016-Sep-23 13:32N 29°53' E 122°10'9289.9
2016-Sep-23 13:30N 29°54' E 121°59'6147370.6
2016-Sep-23 13:25N 23°02' E 113°31'658170.7
2016-Sep-23 09:34N 31°31' E 121°19'3641311562.2
2016-Sep-23 09:33N 37°36' E 121°25'458549205.2
2016-Sep-23 09:33N 29°59' E 122°08'6231121617.5
2016-Sep-23 09:33N 23°02' E 113°31'61256526.0
2016-Sep-23 09:33N 29°49' E 122°01'5451490547.8
2016-Sep-23 09:32N 49°18' W 122°54'5451301890.6
2016-Sep-23 09:31N 29°49' E 122°01'1549745.2
2016-Sep-23 09:30N 31°58' E 120°22'1508690.1
2016-Sep-23 09:29N 29°54' E 121°59'149526.5
2016-Sep-23 09:12N 31°58' E 120°23'14956.6
2016-Sep-23 06:34N 29°54' E 121°59'93003.4
2016-Sep-23 06:33N 29°56' E 122°10'103039.9
2016-Sep-23 06:33N 29°49' E 122°01'0 7.6
2016-Sep-23 06:31N 29°49' E 122°01'15412342.1
2016-Sep-23 06:30N 31°58' E 120°22'5416152328.5
2016-Sep-23 06:28N 49°18' W 122°54'5416163843.6
2016-Sep-23 06:26N 31°58' E 120°23'54162852.6
2016-Sep-23 04:32N 49°18' W 122°54'5451392438.6
2016-Sep-23 04:31N 29°49' E 122°01'015.0
2016-Sep-23 04:30N 29°49' E 122°01'153705.2
2016-Sep-23 04:17N 31°59' E 120°26'1591363.7
2016-Sep-23 04:10N 29°51' E 122°18'1 1.8
2016-Sep-23 03:33N 29°52' E 122°17'14887.6
2016-Sep-23 03:32N 29°49' E 122°01'54511308128.0
2016-Sep-23 03:32N 49°18' W 122°54'54136495710.7
2016-Sep-23 03:32N 31°59' E 120°26'15311688.8
2016-Sep-23 03:31N 29°49' E 122°01'1542072.4
2016-Sep-23 03:27N 31°58' E 120°22'1501356.9
2016-Sep-23 03:20N 29°54' E 121°59'1721.6
2016-Sep-23 02:33N 29°56' E 122°19'1589316.6
2016-Sep-23 02:32N 31°58' E 120°22'41298802.9
2016-Sep-23 02:32N 25°13' E 118°59'3206655.4
2016-Sep-23 02:29N 29°49' E 122°01'5234.4
2016-Sep-23 02:28N 29°54' E 121°59'5448106013.7
2016-Sep-23 02:25N 49°18' W 122°54'5416137295.1
2016-Sep-23 02:22N 31°58' E 120°23'337.0
2016-Sep-23 02:18N 31°59' E 120°26'54137151.3
2016-Sep-23 01:33N 49°18' W 122°54'545176952.6
2016-Sep-23 01:28N 29°49' E 122°01'6126951.4
2016-Sep-23 01:23N 23°02' E 113°31'6294351.6
2016-Sep-23 01:14N 29°56' E 122°19'54317710.3
2016-Sep-23 00:32N 49°18' W 122°54'5451268806.7
2016-Sep-23 00:31N 29°49' E 122°01'5247.7
2016-Sep-23 00:30N 29°54' E 121°59'13109.3
2016-Sep-23 00:23N 29°52' E 122°14'1214.3
2016-Sep-22 23:32N 29°49' E 122°01'54512452859.8
2016-Sep-22 23:32N 49°18' W 122°54'619125098.6
2016-Sep-22 23:17N 23°02' E 113°31'61412930.5
2016-Sep-22 23:15N 29°54' E 121°59'613133749.7
2016-Sep-22 23:04N 33°37' W 117°55'61332447.7
2016-Sep-22 20:33N 29°49' E 122°01'61291824.5
2016-Sep-22 20:33N 23°02' E 113°31'6191586524.1
2016-Sep-22 20:32N 49°18' W 122°54'5432103457.6
2016-Sep-22 20:29N 29°56' E 122°19'1745.1
2016-Sep-22 20:07N 29°54' E 121°59'47863.3
2016-Sep-22 12:33N 37°51' E 121°09'478344080.3
2016-Sep-22 12:33N 29°56' E 122°19'9649266.7
2016-Sep-22 12:33N 31°24' E 121°34'9715942.6
2016-Sep-22 12:33N 29°49' E 122°01'54511154288.0
2016-Sep-22 12:32N 49°18' W 122°54'5448147462.5
2016-Sep-22 12:30N 29°54' E 121°59'61411638.9
2016-Sep-22 12:27N 23°02' E 113°31'6264854.5
2016-Sep-22 12:19N 29°55' E 122°16'35445.6
2016-Sep-22 04:34N 24°48' E 118°57'5846339464.3
2016-Sep-22 04:32N 49°18' W 122°54'54161499849.4
2016-Sep-22 04:32N 31°58' E 120°22'34087429.1
2016-Sep-22 04:32N 37°35' E 121°23'46236131.2
2016-Sep-22 04:31N 29°55' E 122°10'62232920.7
2016-Sep-22 04:30N 23°02' E 113°31'6298738.3
2016-Sep-22 04:26N 29°56' E 122°19'172277.5
2016-Sep-22 04:25N 29°49' E 122°01'108979.1
2016-Sep-22 04:19N 31°31' E 121°18'0 0.0
2016-Sep-22 03:33N 31°31' E 121°18'416249560.0
2016-Sep-22 03:33N 24°52' E 119°04'5837420263.3
2016-Sep-22 03:32N 49°18' W 122°54'5090631916.9
2016-Sep-22 03:32N 37°35' E 121°23'46645371.4
2016-Sep-22 03:31N 29°49' E 122°01'54511838.4
2016-Sep-22 00:33N 49°18' W 122°54'5398231333.8
2016-Sep-22 00:32N 31°31' E 121°18'364327263.0
2016-Sep-22 00:32N 37°35' E 121°23'96346234.8
2016-Sep-22 00:31N 23°02' E 113°31'61226223.7
2016-Sep-22 00:29N 29°49' E 122°01'922249.7
2016-Sep-22 00:27N 31°20' E 121°41'2225.1
2016-Sep-21 23:33N 31°31' E 121°18'124483.0
2016-Sep-21 23:33N 31°25' E 121°31'9910835.5
2016-Sep-21 23:33N 29°49' E 122°01'46640944.9
2016-Sep-21 23:32N 37°35' E 121°23'9647334.3
2016-Sep-21 23:24N 23°02' E 113°31'6121926.6
2016-Sep-21 23:05N 29°47' E 122°02'814.8
2016-Sep-21 22:33N 29°54' E 122°06'10594592.4
2016-Sep-21 22:33N 31°31' E 121°18'36420139.3
2016-Sep-21 22:32N 37°35' E 121°23'46612077.3
2016-Sep-21 22:30N 29°49' E 122°01'61229783.9
2016-Sep-21 22:28N 23°02' E 113°31'61110482.3
2016-Sep-21 22:25N 29°47' E 122°02'17 6.1
2016-Sep-21 19:33N 29°56' E 122°19'158284113.6
2016-Sep-21 19:33N 31°58' E 120°22'5416349.3
2016-Sep-21 19:33N 31°31' E 121°18'1039794.1
2016-Sep-21 19:32N 29°54' E 121°59'462332298.3
2016-Sep-21 19:32N 37°35' E 121°23'58945304169.4
2016-Sep-21 19:32N 33°37' W 117°55'6133394248.1
2016-Sep-21 19:31N 29°49' E 122°01'6124150.5
2016-Sep-21 19:22N 23°02' E 113°31'657233.6
2016-Sep-21 16:33N 31°31' E 121°18'6571182586.0
2016-Sep-21 16:33N 23°02' E 113°31'6122203936.5
2016-Sep-21 16:33N 29°49' E 122°01'9769834.0
2016-Sep-21 16:33N 31°24' E 121°35'7142751.7
2016-Sep-21 16:33N 31°58' E 120°22'34018000.4
2016-Sep-21 16:32N 37°35' E 121°23'46253596.5
2016-Sep-21 16:32N 29°54' E 121°59'171753.5
2016-Sep-21 16:31N 29°56' E 122°19'1647.1
2016-Sep-21 16:10N 29°57' E 121°60'485.7
2016-Sep-21 16:07N 29°60' E 121°56'45969.9
2016-Sep-21 09:33N 37°38' E 121°25'367165104.4
2016-Sep-21 09:33N 31°31' E 121°19'658197442.2
2016-Sep-21 09:33N 23°02' E 113°31'65781564.8
2016-Sep-21 09:32N 31°31' E 121°18'10897410.9
2016-Sep-21 09:32N 29°49' E 122°01'15339236.2
2016-Sep-21 09:32N 31°58' E 120°26'1484976.8
2016-Sep-21 09:30N 29°54' E 121°59'925346.7
2016-Sep-21 09:29N 31°24' E 121°36'1718.1
2016-Sep-21 08:33N 31°31' E 121°18'367660748.1
2016-Sep-21 08:33N 37°38' E 121°25'3768109.9
2016-Sep-21 08:31N 31°22' E 121°38'9010779.8
2016-Sep-21 08:30N 29°54' E 121°59'53516.7
2016-Sep-21 08:30N 29°49' E 122°01'1063309.3
2016-Sep-21 08:28N 31°30' E 121°24'6603649.4
2016-Sep-21 08:17N 23°02' E 113°31'967353.8
2016-Sep-21 05:33N 37°38' E 121°25'36719152.4
2016-Sep-21 05:32N 31°31' E 121°18'1032464.7
2016-Sep-21 05:30N 29°54' E 121°59'10353.4
2016-Sep-21 03:33N 31°31' E 121°18'374134641.6
2016-Sep-21 03:33N 37°45' E 121°17'4778025.8
2016-Sep-21 03:30N 29°49' E 122°01'518.9
2016-Sep-21 03:14N 29°54' E 121°59'61441726.7
2016-Sep-21 03:13N 23°02' E 113°31'657988.8
2016-Sep-21 02:33N 31°31' E 121°18'380114081.5
2016-Sep-21 02:33N 37°51' E 121°10'4793117.9
2016-Sep-21 02:24N 29°54' E 121°59'536.7
2016-Sep-21 02:16N 29°49' E 122°01'  

Dump ship's entire track history